Time;durP1;ratioP1;P1;durP2;ratioP2;P2;SDS_P1;SDS_P2;PMS_P1;PMS_P2;Temp;Humidity;BMP_temperature;BMP_pressure;BME280_temperature;BME280_humidity;BME280_pressure;Samples;Min_cycle;Max_cycle;Signal;HPM_P1;HPM_P2
2022/03/09 00:01:42;;;;;;;18.00;13.48;;;7.90;86.70;;;;;;5104309;28;20216;-62
2022/03/09 00:04:09;;;;;;;17.70;14.63;;;7.90;86.90;;;;;;5106615;28;20234;-64
2022/03/09 00:06:36;;;;;;;17.35;14.13;;;7.90;86.90;;;;;;5102707;28;20566;-63
2022/03/09 00:09:03;;;;;;;16.50;14.27;;;7.80;86.80;;;;;;5099564;28;20218;-64
2022/03/09 00:11:30;;;;;;;16.88;15.07;;;7.80;87.00;;;;;;5102806;28;20227;-64
2022/03/09 00:13:57;;;;;;;18.88;15.73;;;7.80;87.20;;;;;;5108812;28;20215;-64
2022/03/09 00:16:23;;;;;;;17.35;13.35;;;7.80;87.40;;;;;;5102781;28;20684;-64
2022/03/09 00:18:52;;;;;;;18.55;14.68;;;7.80;87.70;;;;;;5106353;28;20222;-63
2022/03/09 00:21:18;;;;;;;17.85;12.68;;;7.80;88.00;;;;;;5103122;28;20230;-63
2022/03/09 00:23:45;;;;;;;17.63;14.30;;;7.80;88.00;;;;;;5099537;28;20223;-63
2022/03/09 00:26:12;;;;;;;20.73;15.23;;;7.70;88.00;;;;;;5102213;28;20247;-63
2022/03/09 00:28:39;;;;;;;19.65;16.27;;;7.70;88.00;;;;;;5106090;28;20756;-64
2022/03/09 00:31:06;;;;;;;17.70;14.18;;;7.70;88.00;;;;;;5104140;28;20231;-63
2022/03/09 00:33:33;;;;;;;20.08;15.98;;;7.70;88.10;;;;;;5099001;28;20551;-63
2022/03/09 00:36:02;;;;;;;18.83;15.60;;;7.70;88.10;;;;;;5113175;28;20211;-63
2022/03/09 00:38:29;;;;;;;18.98;15.35;;;7.60;88.30;;;;;;5107220;28;20224;-63
2022/03/09 00:40:55;;;;;;;22.27;15.55;;;7.60;88.30;;;;;;5104737;27;20222;-63
2022/03/09 00:43:22;;;;;;;22.02;15.02;;;7.60;88.40;;;;;;5112749;27;20223;-64
2022/03/09 00:45:49;;;;;;;22.15;15.73;;;7.60;88.20;;;;;;5105855;28;20223;-63
2022/03/09 00:48:16;;;;;;;18.90;16.23;;;7.60;88.20;;;;;;5105665;27;20239;-64
2022/03/09 00:50:43;;;;;;;21.05;16.65;;;7.60;88.20;;;;;;5112963;28;20237;-64
2022/03/09 00:53:11;;;;;;;21.88;15.55;;;7.60;88.10;;;;;;5098988;28;20223;-64
2022/03/09 00:55:38;;;;;;;21.48;15.60;;;7.50;88.30;;;;;;5106000;28;20234;-64
2022/03/09 00:58:05;;;;;;;20.38;15.45;;;7.50;88.70;;;;;;5115563;27;20215;-64
2022/03/09 01:00:33;;;;;;;21.55;17.23;;;7.50;88.70;;;;;;5112256;27;20238;-64
2022/03/09 01:03:00;;;;;;;18.60;16.00;;;7.40;88.80;;;;;;5112508;28;20306;-62
2022/03/09 01:05:27;;;;;;;21.63;17.92;;;7.50;88.90;;;;;;5115424;27;20245;-64
2022/03/09 01:07:54;;;;;;;23.65;16.60;;;7.40;88.90;;;;;;5098950;28;20226;-64
2022/03/09 01:10:22;;;;;;;20.23;16.40;;;7.40;88.90;;;;;;5104188;28;20232;-63
2022/03/09 01:12:49;;;;;;;23.77;17.38;;;7.40;88.90;;;;;;5107736;27;20741;-63
2022/03/09 01:15:16;;;;;;;22.70;17.67;;;7.40;88.90;;;;;;5112189;27;20219;-64
2022/03/09 01:17:43;;;;;;;22.75;16.88;;;7.40;89.20;;;;;;5111210;27;20215;-63
2022/03/09 01:20:11;;;;;;;21.23;15.57;;;7.40;89.40;;;;;;5112361;28;20219;-63
2022/03/09 01:22:38;;;;;;;20.83;16.75;;;7.30;89.30;;;;;;5112102;27;20227;-63
2022/03/09 01:25:06;;;;;;;19.58;16.48;;;7.30;89.50;;;;;;5114763;27;20223;-64
2022/03/09 01:27:34;;;;;;;19.00;16.33;;;7.20;89.50;;;;;;5112647;28;20238;-64
2022/03/09 01:30:01;;;;;;;24.92;16.83;;;7.20;89.50;;;;;;5108632;27;20234;-64
2022/03/09 01:32:28;;;;;;;24.80;18.55;;;7.20;89.60;;;;;;5117313;27;20230;-63
2022/03/09 01:34:55;;;;;;;22.55;18.73;;;7.20;89.60;;;;;;5115809;27;20227;-64
2022/03/09 01:37:22;;;;;;;23.70;17.45;;;7.10;90.00;;;;;;5111817;28;20223;-64
2022/03/09 01:39:49;;;;;;;25.25;19.17;;;7.10;90.00;;;;;;5106687;28;20215;-63
2022/03/09 01:42:16;;;;;;;26.75;19.17;;;7.10;90.00;;;;;;5115890;27;20235;-63
2022/03/09 01:44:44;;;;;;;27.40;20.70;;;7.10;90.10;;;;;;5115747;28;20320;-64
2022/03/09 01:47:11;;;;;;;24.25;19.50;;;7.10;90.10;;;;;;5101969;28;20677;-64
2022/03/09 01:49:39;;;;;;;24.60;20.00;;;7.10;90.10;;;;;;5115373;27;20223;-64
2022/03/09 01:52:07;;;;;;;23.65;19.88;;;7.10;90.20;;;;;;5115896;28;20568;-64
2022/03/09 01:54:34;;;;;;;22.73;19.70;;;7.00;90.10;;;;;;5103375;27;20223;-64
2022/03/09 01:57:01;;;;;;;23.73;19.63;;;7.00;90.10;;;;;;5107371;28;20230;-64
2022/03/09 01:59:28;;;;;;;22.90;18.77;;;7.00;90.20;;;;;;5115012;27;20226;-64
2022/03/09 02:01:56;;;;;;;22.88;19.40;;;7.00;90.40;;;;;;5114283;27;20219;-64
2022/03/09 02:04:23;;;;;;;24.48;19.30;;;7.00;90.40;;;;;;5115136;27;20227;-63
2022/03/09 02:06:50;;;;;;;20.92;18.70;;;7.00;90.40;;;;;;5115742;28;20227;-64
2022/03/09 02:12:01;;;;;;;25.98;20.85;;;6.90;90.60;;;;;;5116000;28;20898;-64
2022/03/09 02:14:31;;;;;;;25.05;21.83;;;6.90;90.50;;;;;;5115379;28;20976;-64
2022/03/09 02:17:02;;;;;;;23.42;19.80;;;6.80;90.60;;;;;;5115679;28;20298;-64
2022/03/09 02:19:29;;;;;;;24.27;20.23;;;6.80;90.70;;;;;;5115512;27;20629;-63
2022/03/09 02:22:06;;;;;;;25.13;22.23;;;6.80;90.60;;;;;;5114827;28;20215;-63
2022/03/09 02:24:35;;;;;;;25.48;21.30;;;6.80;90.70;;;;;;5114241;27;20219;-63
2022/03/09 02:27:02;;;;;;;27.83;22.02;;;6.80;90.80;;;;;;5114595;27;20701;-63
2022/03/09 02:29:29;;;;;;;28.67;23.40;;;6.80;90.90;;;;;;5114047;27;20227;-63
2022/03/09 02:31:55;;;;;;;26.85;21.35;;;6.80;90.90;;;;;;5126073;27;20237;-64
2022/03/09 02:34:22;;;;;;;22.42;19.90;;;6.80;91.10;;;;;;5134910;27;20222;-63
2022/03/09 02:36:49;;;;;;;22.48;19.67;;;6.80;91.10;;;;;;5134090;27;20214;-63
2022/03/09 02:39:16;;;;;;;26.42;20.73;;;6.80;91.00;;;;;;5128858;27;20231;-63
2022/03/09 02:41:44;;;;;;;26.67;20.92;;;6.80;91.20;;;;;;5115247;27;20227;-63
2022/03/09 02:44:11;;;;;;;30.05;21.38;;;6.80;90.80;;;;;;5114733;27;20223;-62
2022/03/09 02:46:38;;;;;;;31.02;23.23;;;6.80;90.90;;;;;;5115037;27;20552;-63
2022/03/09 02:49:05;;;;;;;26.08;20.95;;;6.80;91.00;;;;;;5114931;27;20216;-63
2022/03/09 02:51:32;;;;;;;25.20;21.98;;;6.80;90.90;;;;;;5114276;27;20578;-63
2022/03/09 02:53:59;;;;;;;27.27;21.40;;;6.80;90.90;;;;;;5114915;27;20230;-63
2022/03/09 02:56:26;;;;;;;28.60;21.80;;;6.70;91.00;;;;;;5114647;27;20568;-64
2022/03/09 02:58:55;;;;;;;29.73;21.10;;;6.70;91.00;;;;;;5107112;27;20583;-64
2022/03/09 03:01:22;;;;;;;25.67;21.00;;;6.70;91.00;;;;;;5114319;27;20227;-64
2022/03/09 03:03:48;;;;;;;27.02;21.52;;;6.70;91.10;;;;;;5114428;27;20223;-64
2022/03/09 03:06:15;;;;;;;24.45;20.88;;;6.70;91.20;;;;;;5113970;27;20238;-64
2022/03/09 03:08:42;;;;;;;25.80;21.33;;;6.70;91.30;;;;;;5114749;28;20226;-64
2022/03/09 03:11:11;;;;;;;26.77;22.90;;;6.70;91.30;;;;;;5114419;27;20230;-63
2022/03/09 03:13:40;;;;;;;32.20;23.88;;;6.60;91.40;;;;;;5114057;28;20234;-64
2022/03/09 03:16:09;;;;;;;25.83;22.58;;;6.60;91.40;;;;;;5114467;28;20222;-64
2022/03/09 03:18:36;;;;;;;27.45;22.52;;;6.60;91.50;;;;;;5114199;27;20219;-63
2022/03/09 03:21:04;;;;;;;27.45;23.50;;;6.60;91.50;;;;;;5114473;28;20258;-64
2022/03/09 03:23:33;;;;;;;26.95;23.80;;;6.60;91.60;;;;;;5113267;27;20464;-64
2022/03/09 03:26:00;;;;;;;27.55;24.02;;;6.60;91.50;;;;;;5114374;27;20230;-64
2022/03/09 03:28:27;;;;;;;35.92;24.90;;;6.60;91.60;;;;;;5113787;27;20227;-63
2022/03/09 03:30:54;;;;;;;28.02;23.60;;;6.60;91.50;;;;;;5114180;27;20226;-64
2022/03/09 03:33:23;;;;;;;30.60;24.45;;;6.50;91.60;;;;;;5113332;27;20231;-63
2022/03/09 03:35:50;;;;;;;27.40;24.35;;;6.50;91.70;;;;;;5114033;27;20214;-64
2022/03/09 03:38:17;;;;;;;40.90;28.83;;;6.50;91.90;;;;;;5113733;27;20223;-64
2022/03/09 03:40:45;;;;;;;49.42;37.70;;;6.50;91.90;;;;;;5113830;27;20227;-64
2022/03/09 03:43:12;;;;;;;35.47;27.20;;;6.50;91.90;;;;;;5113928;27;20223;-64
2022/03/09 03:45:39;;;;;;;31.98;24.27;;;6.50;92.00;;;;;;5113026;27;20225;-64
2022/03/09 03:48:07;;;;;;;37.83;29.65;;;6.50;92.00;;;;;;5113581;27;20242;-64
2022/03/09 03:50:36;;;;;;;35.42;27.13;;;6.50;92.00;;;;;;5113490;27;20238;-63
2022/03/09 03:53:03;;;;;;;52.65;36.20;;;6.60;92.00;;;;;;5113898;27;20223;-63
2022/03/09 03:55:31;;;;;;;44.22;31.05;;;6.60;92.10;;;;;;5113421;27;20234;-63
2022/03/09 03:57:58;;;;;;;31.98;25.17;;;6.60;92.30;;;;;;5106086;27;20222;-64
2022/03/09 04:00:25;;;;;;;33.10;24.80;;;6.60;92.00;;;;;;5113273;27;20230;-64
2022/03/09 04:02:52;;;;;;;37.60;28.77;;;6.60;91.90;;;;;;5113664;27;20219;-64
2022/03/09 04:05:19;;;;;;;65.43;37.35;;;6.60;92.00;;;;;;5113194;27;20235;-63
2022/03/09 04:07:47;;;;;;;36.63;26.45;;;6.60;92.00;;;;;;5113506;28;20223;-63
2022/03/09 04:10:14;;;;;;;32.40;24.80;;;6.60;92.00;;;;;;5113433;28;20227;-63
2022/03/09 04:12:41;;;;;;;28.38;23.73;;;6.60;92.00;;;;;;5112974;28;20234;-63
2022/03/09 04:15:08;;;;;;;40.60;28.75;;;6.60;92.10;;;;;;5113438;28;20219;-63
2022/03/09 04:17:40;;;;;;;33.22;25.85;;;6.60;92.10;;;;;;5112946;28;20242;-63
2022/03/09 04:20:08;;;;;;;24.98;22.27;;;6.60;92.20;;;;;;5113337;28;20226;-63
2022/03/09 04:22:34;;;;;;;43.25;29.10;;;6.50;92.10;;;;;;5112817;28;20231;-63
2022/03/09 04:25:03;;;;;;;37.70;29.08;;;6.50;92.20;;;;;;5113169;27;20222;-63
2022/03/09 04:27:30;;;;;;;24.98;21.13;;;6.50;92.20;;;;;;5112937;27;20619;-64
2022/03/09 04:29:57;;;;;;;44.08;29.48;;;6.50;92.10;;;;;;5113263;27;20562;-63
2022/03/09 04:32:25;;;;;;;26.30;21.92;;;6.50;92.60;;;;;;5112651;27;20223;-63
2022/03/09 04:34:52;;;;;;;34.33;24.55;;;6.50;92.30;;;;;;5108704;27;20215;-64
2022/03/09 04:37:19;;;;;;;29.08;22.88;;;6.50;92.40;;;;;;5092835;28;20235;-63
2022/03/09 04:39:46;;;;;;;30.92;25.35;;;6.50;92.40;;;;;;5092470;28;20216;-63
2022/03/09 04:42:14;;;;;;;30.02;23.15;;;6.50;92.40;;;;;;5092802;28;20228;-63
2022/03/09 04:44:41;;;;;;;37.78;26.13;;;6.50;92.30;;;;;;5092189;28;20223;-63
2022/03/09 04:47:08;;;;;;;22.02;18.75;;;6.50;92.20;;;;;;5092881;28;20573;-64
2022/03/09 04:49:35;;;;;;;23.13;17.65;;;6.50;92.20;;;;;;5092381;28;20223;-64
2022/03/09 04:52:02;;;;;;;32.72;24.55;;;6.40;92.00;;;;;;5092504;28;20269;-64
2022/03/09 04:54:28;;;;;;;26.75;20.63;;;6.40;92.00;;;;;;5092321;28;20233;-64
2022/03/09 04:56:55;;;;;;;22.30;17.75;;;6.40;92.00;;;;;;5092565;28;20692;-63
2022/03/09 04:59:23;;;;;;;24.38;17.67;;;6.40;91.80;;;;;;5110412;27;20223;-63
2022/03/09 05:01:50;;;;;;;19.63;17.50;;;6.40;91.80;;;;;;5116935;27;20215;-63
2022/03/09 05:04:17;;;;;;;18.60;15.57;;;6.30;91.80;;;;;;5116683;27;20239;-64
2022/03/09 05:06:44;;;;;;;29.70;21.48;;;6.30;91.80;;;;;;5116117;27;20226;-63
2022/03/09 05:09:11;;;;;;;26.88;19.60;;;6.30;91.90;;;;;;5117085;27;20234;-64
2022/03/09 05:11:38;;;;;;;27.33;18.83;;;6.30;92.00;;;;;;5116429;27;20238;-63
2022/03/09 05:14:05;;;;;;;28.38;21.48;;;6.20;92.10;;;;;;5116729;27;20230;-63
2022/03/09 05:16:33;;;;;;;20.92;17.42;;;6.30;92.20;;;;;;5116499;27;20687;-63
2022/03/09 05:19:00;;;;;;;24.77;17.38;;;6.20;92.40;;;;;;5116769;27;20293;-63
2022/03/09 05:21:27;;;;;;;23.30;18.98;;;6.30;92.00;;;;;;5116580;27;20227;-64
2022/03/09 05:23:54;;;;;;;23.70;18.58;;;6.20;92.00;;;;;;5116256;27;20215;-64
2022/03/09 05:26:21;;;;;;;20.15;17.75;;;6.20;92.10;;;;;;5116348;27;20568;-65
2022/03/09 05:28:47;;;;;;;17.33;15.50;;;6.20;92.20;;;;;;5115677;27;20707;-63
2022/03/09 05:31:14;;;;;;;20.73;16.65;;;6.20;92.20;;;;;;5116255;27;20231;-64
2022/03/09 05:33:42;;;;;;;27.15;21.52;;;6.20;92.10;;;;;;5116332;27;20588;-64
2022/03/09 05:36:09;;;;;;;31.48;21.98;;;6.20;92.20;;;;;;5116494;27;20227;-64
2022/03/09 05:38:36;;;;;;;20.58;16.55;;;6.20;92.30;;;;;;5115989;27;20549;-64
2022/03/09 05:41:03;;;;;;;20.45;15.63;;;6.20;92.30;;;;;;5116358;27;20572;-64
2022/03/09 05:43:30;;;;;;;21.38;18.02;;;6.20;92.30;;;;;;5116367;27;20691;-64
2022/03/09 05:45:57;;;;;;;19.65;17.15;;;6.20;92.20;;;;;;5116024;27;20641;-64
2022/03/09 05:48:23;;;;;;;17.88;15.43;;;6.20;92.30;;;;;;5116213;27;20231;-65
2022/03/09 05:50:52;;;;;;;19.98;16.17;;;6.20;92.30;;;;;;5115647;27;20230;-63
2022/03/09 05:53:18;;;;;;;20.90;16.65;;;6.20;92.30;;;;;;5116053;27;20238;-63
2022/03/09 05:55:45;;;;;;;21.60;18.00;;;6.10;92.40;;;;;;5115512;27;20313;-64
2022/03/09 05:58:12;;;;;;;21.30;16.10;;;6.10;92.50;;;;;;5116165;27;20223;-63
2022/03/09 06:00:39;;;;;;;18.13;16.25;;;6.10;92.50;;;;;;5115338;27;20238;-63
2022/03/09 06:03:06;;;;;;;17.88;15.57;;;6.10;92.60;;;;;;5115703;27;20234;-64
2022/03/09 06:05:32;;;;;;;19.38;16.23;;;6.10;92.50;;;;;;5115983;27;20681;-63
2022/03/09 06:08:01;;;;;;;16.60;14.75;;;6.10;92.50;;;;;;5115380;27;20223;-63
2022/03/09 06:10:28;;;;;;;16.95;14.88;;;6.10;92.50;;;;;;5115682;27;20231;-64
2022/03/09 06:12:54;;;;;;;20.85;14.80;;;6.10;92.60;;;;;;5115134;27;20223;-64
2022/03/09 06:15:21;;;;;;;21.27;16.33;;;6.10;92.50;;;;;;5115570;27;20999;-64
2022/03/09 06:17:50;;;;;;;20.35;15.88;;;6.10;92.60;;;;;;5114997;27;20223;-64
2022/03/09 06:20:18;;;;;;;18.95;15.13;;;6.10;92.60;;;;;;5115572;27;20223;-64
2022/03/09 06:22:46;;;;;;;18.90;15.15;;;6.10;92.60;;;;;;5114961;27;20246;-63
2022/03/09 06:25:15;;;;;;;16.48;14.73;;;6.10;92.60;;;;;;5115467;27;20223;-64
2022/03/09 06:27:42;;;;;;;17.55;15.73;;;6.10;92.60;;;;;;5114978;27;20219;-64
2022/03/09 06:30:10;;;;;;;21.13;16.27;;;6.20;92.60;;;;;;5115261;27;20226;-64
2022/03/09 06:32:37;;;;;;;18.67;15.60;;;6.10;92.60;;;;;;5114975;27;20218;-63
2022/03/09 06:35:06;;;;;;;19.67;16.35;;;6.20;92.60;;;;;;5115468;27;20599;-64
2022/03/09 06:37:33;;;;;;;19.88;16.27;;;6.20;92.60;;;;;;5115287;27;20688;-64
2022/03/09 06:40:00;;;;;;;19.40;16.08;;;6.20;92.60;;;;;;5114656;27;20230;-64
2022/03/09 06:42:29;;;;;;;20.55;16.38;;;6.20;92.70;;;;;;5115394;27;20219;-63
2022/03/09 06:44:56;;;;;;;21.98;16.85;;;6.20;92.70;;;;;;5114795;27;20565;-64
2022/03/09 06:47:23;;;;;;;17.30;15.50;;;6.30;92.80;;;;;;5115018;27;20227;-64
2022/03/09 06:49:51;;;;;;;17.42;14.65;;;6.30;92.80;;;;;;5114676;27;20219;-63
2022/03/09 06:52:17;;;;;;;18.52;16.58;;;6.30;92.70;;;;;;5114799;27;20227;-65
2022/03/09 06:54:44;;;;;;;19.63;16.83;;;6.30;92.80;;;;;;5114622;27;20227;-63
2022/03/09 06:57:12;;;;;;;18.48;15.85;;;6.30;92.80;;;;;;5114928;27;20219;-64
2022/03/09 06:59:42;;;;;;;17.73;14.73;;;6.40;92.80;;;;;;5114396;27;20227;-63
2022/03/09 07:02:09;;;;;;;16.80;14.82;;;6.40;92.80;;;;;;5114814;27;20238;-63
2022/03/09 07:04:36;;;;;;;15.70;13.95;;;6.50;92.80;;;;;;5114189;27;20227;-63
2022/03/09 07:07:03;;;;;;;16.65;14.65;;;6.50;92.70;;;;;;5114036;27;20234;-63
2022/03/09 07:09:30;;;;;;;17.85;14.68;;;6.50;92.60;;;;;;5114628;27;20681;-64
2022/03/09 07:11:57;;;;;;;17.73;14.52;;;6.60;92.60;;;;;;5114085;27;20242;-64
2022/03/09 07:14:24;;;;;;;14.38;12.70;;;6.60;92.50;;;;;;5114437;27;20235;-64
2022/03/09 07:16:52;;;;;;;15.20;12.75;;;6.60;92.20;;;;;;5114271;27;20708;-64
2022/03/09 07:19:19;;;;;;;16.75;12.10;;;6.70;92.10;;;;;;5114550;27;20595;-64
2022/03/09 07:21:45;;;;;;;14.52;12.77;;;6.70;91.70;;;;;;5113291;27;20227;-64
2022/03/09 07:24:12;;;;;;;15.52;12.48;;;6.80;91.70;;;;;;5114334;27;20230;-64
2022/03/09 07:26:41;;;;;;;13.80;12.02;;;6.80;91.60;;;;;;5114138;27;20226;-64
2022/03/09 07:29:08;;;;;;;18.33;13.80;;;6.90;91.50;;;;;;5113970;27;20661;-64
2022/03/09 07:31:35;;;;;;;14.85;12.18;;;6.90;91.40;;;;;;5114279;27;20219;-64
2022/03/09 07:34:03;;;;;;;16.30;11.90;;;6.90;91.30;;;;;;5113682;27;20238;-64
2022/03/09 07:36:30;;;;;;;15.52;11.70;;;7.00;91.30;;;;;;5114210;27;20677;-64
2022/03/09 07:38:57;;;;;;;15.45;11.32;;;7.10;91.40;;;;;;5113683;27;20238;-64
2022/03/09 07:41:24;;;;;;;14.13;12.32;;;7.10;91.30;;;;;;5113958;27;20230;-64
2022/03/09 07:43:50;;;;;;;15.93;13.13;;;7.20;91.40;;;;;;5113593;27;20227;-64
2022/03/09 07:46:17;;;;;;;13.70;12.30;;;7.20;91.40;;;;;;5113907;27;20223;-64
2022/03/09 07:48:44;;;;;;;14.57;13.00;;;7.30;91.40;;;;;;5113766;27;20230;-64
2022/03/09 07:51:13;;;;;;;14.40;12.95;;;7.30;91.40;;;;;;5113467;27;21009;-65
2022/03/09 07:53:42;;;;;;;13.85;12.45;;;7.40;91.20;;;;;;5113561;27;20273;-63
2022/03/09 07:56:10;;;;;;;16.02;14.23;;;7.50;91.10;;;;;;5113383;27;20272;-64
2022/03/09 07:58:37;;;;;;;16.95;13.43;;;7.50;91.00;;;;;;5113556;27;20226;-64
2022/03/09 08:01:04;;;;;;;17.60;12.77;;;7.60;91.20;;;;;;5113341;27;20227;-64
2022/03/09 08:03:31;;;;;;;18.75;14.93;;;7.70;90.80;;;;;;5113528;27;20685;-62
2022/03/09 08:05:58;;;;;;;16.67;13.13;;;7.70;90.60;;;;;;5113400;27;20215;-63
2022/03/09 08:08:27;;;;;;;13.50;12.30;;;7.80;90.70;;;;;;5113327;27;20701;-65
2022/03/09 08:10:54;;;;;;;20.70;15.70;;;7.80;90.60;;;;;;5113026;27;20237;-65
2022/03/09 08:13:20;;;;;;;17.02;13.65;;;7.90;90.50;;;;;;5113701;27;20219;-63
2022/03/09 08:15:47;;;;;;;15.82;12.40;;;8.00;90.50;;;;;;5113339;27;20238;-65
2022/03/09 08:18:14;;;;;;;19.77;13.63;;;8.10;90.20;;;;;;5113134;27;20219;-64
2022/03/09 08:20:41;;;;;;;16.25;12.75;;;8.10;90.00;;;;;;5113319;27;20230;-63
2022/03/09 08:23:08;;;;;;;15.60;11.13;;;8.20;89.90;;;;;;5112771;27;20230;-63
2022/03/09 08:25:36;;;;;;;16.65;12.88;;;8.30;89.70;;;;;;5113284;27;20219;-64
2022/03/09 08:28:03;;;;;;;13.70;11.23;;;8.30;89.40;;;;;;5112951;27;20227;-63
2022/03/09 08:30:30;;;;;;;12.88;11.27;;;8.40;89.30;;;;;;5113243;27;20234;-64
2022/03/09 08:32:57;;;;;;;17.20;11.57;;;8.40;89.00;;;;;;5112846;27;20223;-64
2022/03/09 08:35:24;;;;;;;16.25;13.38;;;8.50;88.80;;;;;;5112583;27;20227;-64
2022/03/09 08:37:51;;;;;;;14.48;11.88;;;8.60;88.70;;;;;;5113166;27;20219;-64
2022/03/09 08:40:17;;;;;;;15.68;12.15;;;8.60;88.40;;;;;;5113259;27;20223;-64
2022/03/09 08:42:46;;;;;;;18.08;12.38;;;8.70;88.10;;;;;;5113144;27;20234;-64
2022/03/09 08:45:13;;;;;;;12.90;11.55;;;8.80;88.00;;;;;;5112662;27;20223;-64
2022/03/09 08:47:40;;;;;;;14.73;11.30;;;8.80;87.80;;;;;;5113432;27;20250;-65
2022/03/09 08:50:08;;;;;;;12.50;10.32;;;8.90;87.30;;;;;;5112758;27;20297;-65
2022/03/09 08:52:35;;;;;;;14.65;11.60;;;9.00;87.10;;;;;;5112963;27;20219;-63
2022/03/09 08:55:01;;;;;;;13.98;10.90;;;9.00;86.70;;;;;;5112663;27;20219;-63
2022/03/09 08:57:28;;;;;;;13.50;10.18;;;9.10;86.30;;;;;;5113163;27;20248;-63
2022/03/09 08:59:57;;;;;;;13.88;11.63;;;9.10;86.00;;;;;;5112406;27;20297;-63
2022/03/09 09:02:24;;;;;;;14.73;10.70;;;9.20;85.30;;;;;;5113271;27;20223;-64
2022/03/09 09:04:51;;;;;;;17.90;11.10;;;9.30;85.10;;;;;;5112814;27;20227;-64
2022/03/09 09:07:17;;;;;;;13.55;12.02;;;9.30;84.70;;;;;;5112416;27;20560;-64
2022/03/09 09:09:44;;;;;;;14.30;11.85;;;9.40;84.50;;;;;;5113018;27;20244;-64
2022/03/09 09:12:11;;;;;;;15.00;11.73;;;9.50;84.40;;;;;;5112357;27;20234;-64
2022/03/09 09:14:38;;;;;;;17.60;11.50;;;9.50;84.20;;;;;;5112848;27;20680;-63
2022/03/09 09:17:07;;;;;;;12.90;11.57;;;9.60;84.00;;;;;;5112560;27;20223;-64
2022/03/09 09:19:34;;;;;;;16.38;11.25;;;9.70;83.90;;;;;;5113055;27;20582;-64
2022/03/09 09:22:03;;;;;;;13.68;10.43;;;9.70;83.80;;;;;;5112450;27;20568;-63
2022/03/09 09:24:31;;;;;;;15.45;11.85;;;9.80;83.80;;;;;;5112800;27;20227;-63
2022/03/09 09:26:57;;;;;;;14.75;10.70;;;9.80;83.80;;;;;;5112354;27;20215;-64
2022/03/09 09:29:24;;;;;;;16.38;12.18;;;9.90;83.90;;;;;;5112943;27;20296;-64
2022/03/09 09:31:51;;;;;;;14.18;11.60;;;9.90;83.90;;;;;;5112709;27;20238;-64
2022/03/09 09:34:20;;;;;;;15.02;10.57;;;10.00;82.60;;;;;;5112199;27;20239;-63
2022/03/09 09:36:47;;;;;;;14.88;10.90;;;10.00;82.30;;;;;;5112769;27;20226;-64
2022/03/09 09:39:14;;;;;;;13.52;10.45;;;10.10;81.90;;;;;;5112115;27;20567;-63
2022/03/09 09:41:43;;;;;;;13.60;9.90;;;10.20;81.50;;;;;;5112716;27;20288;-63
2022/03/09 09:44:11;;;;;;;11.27;9.02;;;10.20;81.10;;;;;;5112301;27;20312;-63
2022/03/09 09:46:39;;;;;;;12.70;9.63;;;10.30;80.40;;;;;;5115561;27;20614;-64
2022/03/09 09:49:07;;;;;;;12.30;8.48;;;10.30;79.50;;;;;;5115831;27;20548;-64
2022/03/09 09:51:37;;;;;;;10.70;8.10;;;10.40;78.50;;;;;;5116178;27;20284;-64
2022/03/09 09:54:04;;;;;;;8.63;7.45;;;10.50;78.30;;;;;;5115643;27;20223;-64
2022/03/09 09:56:32;;;;;;;11.45;8.95;;;10.50;78.20;;;;;;5115967;27;20226;-63
2022/03/09 09:59:00;;;;;;;12.25;8.80;;;10.60;78.10;;;;;;5115681;27;20234;-64
2022/03/09 10:01:27;;;;;;;12.48;9.15;;;10.70;78.00;;;;;;5116048;27;20238;-64
2022/03/09 10:03:53;;;;;;;12.93;9.80;;;10.70;77.80;;;;;;5115827;27;20687;-64
2022/03/09 10:06:20;;;;;;;12.70;8.60;;;10.70;77.70;;;;;;5115596;27;20223;-64
2022/03/09 10:09:02;;;;;;;12.27;9.00;;;10.80;77.70;;;;;;5115644;27;20223;-64
2022/03/09 10:11:50;;;;;;;10.30;8.00;;;10.80;77.20;;;;;;5115518;27;20227;-64
2022/03/09 10:14:38;;;;;;;10.05;7.20;;;10.90;76.40;;;;;;5115375;27;20234;-63
2022/03/09 10:17:07;;;;;;;9.55;7.07;;;10.90;74.80;;;;;;5115164;27;20238;-64
2022/03/09 10:19:37;;;;;;;12.35;7.05;;;11.00;73.60;;;;;;5115612;27;20215;-64
2022/03/09 10:22:25;;;;;;;11.38;6.63;;;11.10;73.10;;;;;;5115346;27;20254;-64
2022/03/09 10:24:54;;;;;;;11.80;7.82;;;11.10;72.70;;;;;;5115496;27;20215;-64
2022/03/09 10:27:34;;;;;;;6.95;6.28;;;11.20;71.50;;;;;;5115178;27;20224;-64
2022/03/09 10:30:02;;;;;;;7.82;6.32;;;11.20;71.40;;;;;;5114811;27;20223;-64
2022/03/09 10:32:46;;;;;;;8.90;6.65;;;11.20;70.90;;;;;;5115448;27;20214;-64
2022/03/09 10:35:14;;;;;;;8.60;7.70;;;11.30;70.50;;;;;;5115067;27;20215;-64
2022/03/09 10:37:42;;;;;;;10.60;6.80;;;11.30;70.50;;;;;;5115267;27;20231;-64
2022/03/09 10:40:13;;;;;;;12.45;7.43;;;11.40;70.30;;;;;;5114521;27;20223;-64
2022/03/09 10:42:40;;;;;;;9.07;7.70;;;11.40;69.80;;;;;;5115354;27;20595;-64
2022/03/09 10:45:08;;;;;;;9.40;7.63;;;11.50;69.80;;;;;;5114744;27;20237;-64
2022/03/09 10:47:37;;;;;;;9.98;6.78;;;11.50;69.80;;;;;;5115184;27;20226;-62
2022/03/09 10:50:13;;;;;;;8.82;7.00;;;11.50;69.50;;;;;;5114337;27;20238;-63
2022/03/09 10:52:54;;;;;;;10.43;7.90;;;11.50;68.40;;;;;;5115002;27;20218;-63
2022/03/09 10:55:28;;;;;;;9.07;6.85;;;11.50;68.50;;;;;;5114843;27;20223;-63
2022/03/09 10:58:09;;;;;;;10.20;6.68;;;11.60;67.80;;;;;;5114119;27;20223;-63
2022/03/09 11:00:41;;;;;;;8.73;6.55;;;11.60;67.70;;;;;;5115201;27;20223;-63
2022/03/09 11:03:10;;;;;;;10.20;6.53;;;11.60;66.20;;;;;;5114382;27;20636;-63
2022/03/09 11:05:37;;;;;;;7.28;5.97;;;11.60;65.80;;;;;;5114847;27;20314;-63
2022/03/09 11:08:04;;;;;;;9.23;8.32;;;11.70;66.20;;;;;;5114243;27;20235;-63
2022/03/09 11:10:33;;;;;;;13.65;7.60;;;11.70;65.90;;;;;;5114616;27;20317;-63
2022/03/09 11:13:01;;;;;;;9.63;8.73;;;11.80;66.00;;;;;;5114219;27;20223;-64
2022/03/09 11:15:28;;;;;;;9.60;8.70;;;11.80;65.80;;;;;;5114408;27;20223;-64
2022/03/09 11:17:56;;;;;;;11.95;7.22;;;11.90;65.50;;;;;;5113988;27;20223;-64
2022/03/09 11:20:23;;;;;;;9.05;6.45;;;11.90;65.10;;;;;;5114440;27;20238;-64
2022/03/09 11:22:51;;;;;;;10.95;9.48;;;12.00;65.10;;;;;;5113696;27;20226;-64
2022/03/09 11:25:23;;;;;;;11.23;10.02;;;12.00;63.80;;;;;;5114394;27;20231;-64
2022/03/09 11:27:53;;;;;;;10.63;9.73;;;12.10;64.60;;;;;;5113933;27;20222;-64
2022/03/09 11:30:25;;;;;;;8.57;7.72;;;12.10;63.60;;;;;;5113931;27;20288;-64
2022/03/09 11:32:54;;;;;;;11.57;10.43;;;12.20;63.80;;;;;;5113870;27;20248;-64
2022/03/09 11:35:37;;;;;;;12.90;9.38;;;12.20;63.90;;;;;;5114124;27;20231;-64
2022/03/09 11:38:25;;;;;;;9.40;7.75;;;12.20;64.00;;;;;;5112677;27;20222;-64
2022/03/09 11:41:17;;;;;;;9.10;7.50;;;12.20;63.90;;;;;;5113413;27;20227;-64
2022/03/09 11:43:46;;;;;;;10.60;6.60;;;12.30;62.80;;;;;;5113779;27;20214;-64
2022/03/09 11:46:13;;;;;;;6.95;6.35;;;12.30;63.00;;;;;;5113725;27;20211;-64
2022/03/09 11:48:52;;;;;;;9.27;7.18;;;12.30;63.00;;;;;;5113838;27;20230;-64
2022/03/09 11:51:19;;;;;;;8.00;7.20;;;12.30;62.20;;;;;;5113671;27;20215;-64
2022/03/09 11:53:50;;;;;;;8.18;7.32;;;12.30;62.10;;;;;;5113820;27;20230;-63
2022/03/09 11:56:28;;;;;;;7.03;5.90;;;12.40;63.30;;;;;;5113424;27;20219;-63
2022/03/09 11:59:13;;;;;;;7.50;5.80;;;12.40;62.60;;;;;;5113204;27;20210;-63
2022/03/09 12:02:28;;;;;;;7.70;5.70;;;12.40;62.60;;;;;;5113657;27;20234;-64
2022/03/09 12:04:59;;;;;;;7.97;7.00;;;12.40;62.30;;;;;;5113321;27;20231;-63
2022/03/09 12:07:49;;;;;;;7.65;6.95;;;12.40;60.60;;;;;;5113583;27;20226;-63
2022/03/09 12:10:19;;;;;;;6.10;5.45;;;12.40;60.20;;;;;;5113386;27;20233;-64
2022/03/09 12:13:15;;;;;;;7.57;6.25;;;12.40;59.20;;;;;;5113522;27;20218;-63
2022/03/09 12:16:15;;;;;;;9.48;5.40;;;12.40;58.60;;;;;;5113232;27;20215;-63
2022/03/09 12:18:47;;;;;;;6.88;5.82;;;12.50;58.00;;;;;;5113116;27;20924;-63
2022/03/09 12:21:17;;;;;;;7.78;7.07;;;12.40;58.30;;;;;;5113268;27;20243;-64
2022/03/09 12:24:29;;;;;;;6.22;5.35;;;12.50;57.80;;;;;;5113151;27;20594;-64
2022/03/09 12:26:56;;;;;;;5.72;5.15;;;12.50;57.20;;;;;;5113741;27;20235;-64
2022/03/09 12:29:40;;;;;;;6.50;5.82;;;12.50;57.00;;;;;;5112932;27;20234;-64
2022/03/09 12:32:13;;;;;;;6.65;5.43;;;12.50;57.20;;;;;;5112863;27;20227;-64
2022/03/09 12:34:42;;;;;;;6.07;5.47;;;12.50;57.50;;;;;;5113367;27;20222;-64
2022/03/09 12:37:12;;;;;;;6.63;5.95;;;12.50;57.50;;;;;;5112879;27;20223;-64
2022/03/09 12:39:39;;;;;;;7.30;5.85;;;12.60;57.50;;;;;;5113212;27;20236;-64
2022/03/09 12:42:07;;;;;;;6.20;5.20;;;12.70;57.50;;;;;;5112685;27;20242;-63
2022/03/09 12:44:36;;;;;;;5.72;5.22;;;12.70;57.80;;;;;;5113299;27;20231;-64
2022/03/09 12:47:05;;;;;;;6.75;5.15;;;12.70;57.30;;;;;;5112785;27;20219;-63
2022/03/09 12:49:39;;;;;;;7.35;6.65;;;12.70;56.70;;;;;;5112879;27;20242;-64